createdAt,value
2018-03-29T00:00:23.187Z,0
2018-03-29T00:01:24.619Z,0
2018-03-29T00:02:26.250Z,0
2018-03-29T00:03:28.108Z,0
2018-03-29T00:04:29.858Z,0
2018-03-29T00:05:31.299Z,0
2018-03-29T00:06:32.750Z,0
2018-03-29T00:07:34.251Z,0
2018-03-29T00:08:35.714Z,0
2018-03-29T00:09:37.177Z,0
2018-03-29T00:10:38.650Z,0
2018-03-29T00:11:40.116Z,0
2018-03-29T00:12:41.629Z,0
2018-03-29T00:13:43.081Z,0
2018-03-29T00:14:44.609Z,0
2018-03-29T00:15:46.407Z,0
2018-03-29T00:16:48.098Z,0
2018-03-29T00:17:49.872Z,0
2018-03-29T00:18:51.552Z,0
2018-03-29T00:19:52.973Z,0
2018-03-29T00:20:54.656Z,0
2018-03-29T00:21:56.345Z,0
2018-03-29T00:22:57.815Z,0
2018-03-29T00:23:59.326Z,0
2018-03-29T00:25:00.909Z,0
2018-03-29T00:26:02.614Z,0
2018-03-29T00:27:04.306Z,0
2018-03-29T00:28:06.006Z,0
2018-03-29T00:29:07.714Z,0
2018-03-29T00:30:09.406Z,0
2018-03-29T00:31:10.869Z,0
2018-03-29T00:32:12.330Z,0
2018-03-29T00:33:13.890Z,0
2018-03-29T00:34:15.340Z,0
2018-03-29T00:35:16.792Z,0
2018-03-29T00:36:18.246Z,0
2018-03-29T00:37:19.825Z,0
2018-03-29T00:38:21.265Z,0
2018-03-29T00:39:22.725Z,0
2018-03-29T00:40:24.181Z,0
2018-03-29T00:41:25.638Z,0
2018-03-29T00:42:27.101Z,0
2018-03-29T00:43:28.582Z,0
2018-03-29T00:44:30.028Z,0
2018-03-29T00:45:31.497Z,0
2018-03-29T00:46:32.907Z,0
2018-03-29T00:47:34.382Z,0
2018-03-29T00:48:36.303Z,0
2018-03-29T00:49:37.759Z,0
2018-03-29T00:50:39.250Z,0
2018-03-29T00:51:40.734Z,0
2018-03-29T00:52:42.170Z,0
2018-03-29T00:53:43.648Z,0
2018-03-29T00:54:45.196Z,0
2018-03-29T00:55:46.609Z,0
2018-03-29T00:56:48.057Z,0
2018-03-29T00:57:49.512Z,0
2018-03-29T00:58:50.954Z,0
2018-03-29T00:59:52.392Z,0
2018-03-29T01:00:53.852Z,0
2018-03-29T01:01:55.281Z,0
2018-03-29T01:02:56.703Z,0
2018-03-29T01:03:58.134Z,0
2018-03-29T01:04:59.552Z,0
2018-03-29T01:06:00.979Z,0
2018-03-29T01:07:02.423Z,0
2018-03-29T01:08:03.874Z,0
2018-03-29T01:09:05.313Z,0
2018-03-29T01:10:06.727Z,0
2018-03-29T01:11:08.188Z,0
2018-03-29T01:12:09.605Z,0
2018-03-29T01:13:11.013Z,0
2018-03-29T01:14:12.451Z,0
2018-03-29T01:15:13.879Z,0
2018-03-29T01:16:15.305Z,0
2018-03-29T01:17:16.778Z,0
2018-03-29T01:18:18.275Z,0
2018-03-29T01:19:19.709Z,0
2018-03-29T01:20:21.138Z,0
2018-03-29T01:21:22.596Z,0
2018-03-29T01:22:24.042Z,0
2018-03-29T01:23:25.452Z,0
2018-03-29T01:24:26.857Z,0
2018-03-29T01:25:28.251Z,0
2018-03-29T01:26:29.685Z,0
2018-03-29T01:27:31.168Z,0
2018-03-29T01:28:32.566Z,0
2018-03-29T01:29:34.048Z,0
2018-03-29T01:30:35.512Z,0
2018-03-29T01:31:36.940Z,0
2018-03-29T01:32:38.345Z,0
2018-03-29T01:33:39.783Z,0
2018-03-29T01:34:41.212Z,0
2018-03-29T01:35:42.667Z,0
2018-03-29T01:36:44.104Z,0
2018-03-29T01:37:45.518Z,0
2018-03-29T01:38:46.935Z,0
2018-03-29T01:39:48.396Z,0
2018-03-29T01:40:49.888Z,0
2018-03-29T01:41:51.288Z,0
2018-03-29T01:42:52.704Z,0
2018-03-29T01:43:54.167Z,0
2018-03-29T01:44:55.567Z,0
2018-03-29T01:45:57.009Z,0
2018-03-29T01:46:58.451Z,0
2018-03-29T01:47:59.861Z,0
2018-03-29T01:49:01.376Z,0
2018-03-29T01:50:02.837Z,0
2018-03-29T01:51:04.332Z,0
2018-03-29T01:52:05.768Z,0
2018-03-29T01:53:07.258Z,0
2018-03-29T01:54:08.715Z,0
2018-03-29T01:55:10.201Z,0
2018-03-29T01:56:11.652Z,0
2018-03-29T01:57:13.035Z,0
2018-03-29T01:58:14.506Z,0
2018-03-29T01:59:15.887Z,0
2018-03-29T02:00:17.298Z,0
2018-03-29T02:01:18.751Z,0
2018-03-29T02:02:20.199Z,0
2018-03-29T02:03:21.664Z,0
2018-03-29T02:04:23.072Z,0
2018-03-29T02:05:24.513Z,0
2018-03-29T02:06:25.937Z,0
2018-03-29T02:07:27.388Z,0
2018-03-29T02:08:28.826Z,0
2018-03-29T02:09:30.310Z,0
2018-03-29T02:10:31.682Z,0
2018-03-29T02:11:33.130Z,0
2018-03-29T02:12:34.549Z,0
2018-03-29T02:13:36.010Z,0
2018-03-29T02:14:37.412Z,0
2018-03-29T02:15:38.864Z,0
2018-03-29T02:16:40.316Z,0
2018-03-29T02:17:41.717Z,0
2018-03-29T02:18:43.125Z,0
2018-03-29T02:19:44.571Z,0
2018-03-29T02:20:46.013Z,0
2018-03-29T02:21:47.406Z,0
2018-03-29T02:22:48.866Z,0
2018-03-29T02:23:50.291Z,0
2018-03-29T02:24:51.696Z,0
2018-03-29T02:25:53.130Z,0
2018-03-29T02:26:54.572Z,0
2018-03-29T02:27:55.992Z,0
2018-03-29T02:28:57.394Z,0
2018-03-29T02:29:58.802Z,0
2018-03-29T02:31:00.251Z,0
2018-03-29T02:32:01.664Z,0
2018-03-29T02:33:03.096Z,0
2018-03-29T02:34:04.547Z,0
2018-03-29T02:35:05.959Z,0
2018-03-29T02:36:07.425Z,0
2018-03-29T02:37:08.864Z,0
2018-03-29T02:38:10.306Z,0
2018-03-29T02:39:11.775Z,0
2018-03-29T02:40:13.265Z,0
2018-03-29T02:41:14.743Z,0
2018-03-29T02:42:16.119Z,0
2018-03-29T02:43:17.514Z,0
2018-03-29T02:44:18.962Z,0
2018-03-29T02:45:20.393Z,0
2018-03-29T02:46:21.854Z,0
2018-03-29T02:47:23.331Z,0
2018-03-29T02:48:24.803Z,0
2018-03-29T02:49:26.209Z,0
2018-03-29T02:50:27.593Z,0
2018-03-29T02:51:29.047Z,0
2018-03-29T02:52:30.523Z,0
2018-03-29T02:53:31.963Z,0
2018-03-29T02:54:33.470Z,0
2018-03-29T02:55:34.913Z,0
2018-03-29T02:56:36.395Z,0
2018-03-29T02:57:37.796Z,0
2018-03-29T02:58:39.241Z,0
2018-03-29T02:59:40.659Z,0
2018-03-29T03:00:42.103Z,0
2018-03-29T03:01:43.621Z,0
2018-03-29T03:02:45.061Z,0
2018-03-29T03:03:46.479Z,0
2018-03-29T03:04:47.911Z,0
2018-03-29T03:05:49.327Z,0
2018-03-29T03:06:50.838Z,0
2018-03-29T03:07:52.245Z,0
2018-03-29T03:08:53.693Z,0
2018-03-29T03:09:55.133Z,0
2018-03-29T03:10:56.564Z,0
2018-03-29T03:11:58.020Z,0
2018-03-29T03:12:59.396Z,0
2018-03-29T03:14:00.834Z,0
2018-03-29T03:15:02.260Z,0
2018-03-29T03:16:03.757Z,0
2018-03-29T03:17:05.177Z,0
2018-03-29T03:18:06.597Z,0
2018-03-29T03:19:08.099Z,0
2018-03-29T03:20:09.504Z,0
2018-03-29T03:21:10.924Z,0
2018-03-29T03:22:12.325Z,0
2018-03-29T03:23:13.814Z,0
2018-03-29T03:24:15.261Z,0
2018-03-29T03:25:16.696Z,0
2018-03-29T03:26:18.102Z,0
2018-03-29T03:27:19.542Z,0
2018-03-29T03:28:21.005Z,0
2018-03-29T03:29:22.469Z,0
2018-03-29T03:30:24.061Z,0
2018-03-29T03:31:25.505Z,0
2018-03-29T03:32:26.925Z,0
2018-03-29T03:33:28.387Z,0
2018-03-29T03:34:29.869Z,0
2018-03-29T03:35:31.319Z,0
2018-03-29T03:36:32.795Z,0
2018-03-29T03:37:34.230Z,0
2018-03-29T03:38:35.703Z,0
2018-03-29T03:39:37.140Z,0
2018-03-29T03:40:38.624Z,0
2018-03-29T03:41:40.031Z,0
2018-03-29T03:42:41.460Z,0
2018-03-29T03:43:42.897Z,0
2018-03-29T03:44:44.328Z,0
2018-03-29T03:45:45.771Z,0
2018-03-29T03:46:47.165Z,0
2018-03-29T03:47:48.656Z,0
2018-03-29T03:48:50.131Z,0
2018-03-29T03:49:51.619Z,0
2018-03-29T03:50:53.088Z,0
2018-03-29T03:51:54.506Z,0
2018-03-29T03:52:55.940Z,0
2018-03-29T03:53:57.381Z,0
2018-03-29T03:54:59.025Z,0
2018-03-29T03:56:00.794Z,0
2018-03-29T03:57:02.264Z,0
2018-03-29T03:58:03.716Z,0
2018-03-29T03:59:05.176Z,0
2018-03-29T04:00:06.679Z,0
2018-03-29T04:01:08.102Z,0
2018-03-29T04:02:09.569Z,0
2018-03-29T04:03:11.024Z,0
2018-03-29T04:04:12.456Z,0
2018-03-29T04:05:13.924Z,0
2018-03-29T04:06:15.352Z,0
2018-03-29T04:07:17.093Z,0
2018-03-29T04:08:18.653Z,0
2018-03-29T04:09:20.062Z,0
2018-03-29T04:10:21.518Z,0
2018-03-29T04:11:22.963Z,0
2018-03-29T04:12:24.406Z,0
2018-03-29T04:13:25.896Z,0
2018-03-29T04:14:27.307Z,0
2018-03-29T04:15:28.806Z,0
2018-03-29T04:16:30.252Z,0
2018-03-29T04:17:31.679Z,0
2018-03-29T04:18:33.141Z,0
2018-03-29T04:19:34.584Z,0
2018-03-29T04:20:36.035Z,0
2018-03-29T04:21:37.480Z,0
2018-03-29T04:22:38.972Z,0
2018-03-29T04:23:40.371Z,0
2018-03-29T04:24:41.760Z,0
2018-03-29T04:25:43.270Z,0
2018-03-29T04:26:45.056Z,0
2018-03-29T04:27:46.496Z,0
2018-03-29T04:28:47.973Z,0
2018-03-29T04:29:49.453Z,0
2018-03-29T04:30:50.847Z,0
2018-03-29T04:31:52.241Z,0
2018-03-29T04:32:53.725Z,0
2018-03-29T04:33:55.184Z,0
2018-03-29T04:34:56.598Z,0
2018-03-29T04:35:58.078Z,0
2018-03-29T04:36:59.516Z,0
2018-03-29T04:38:00.960Z,0
2018-03-29T04:39:02.414Z,0
2018-03-29T04:40:03.853Z,0
2018-03-29T04:41:05.307Z,0
2018-03-29T04:42:06.782Z,0
2018-03-29T04:43:08.279Z,0
2018-03-29T04:44:10.056Z,0
2018-03-29T04:45:11.509Z,0
2018-03-29T04:46:12.947Z,0
2018-03-29T04:47:14.364Z,0
2018-03-29T04:48:15.777Z,0
2018-03-29T04:49:17.245Z,0
2018-03-29T04:50:18.718Z,0
2018-03-29T04:51:20.184Z,0
2018-03-29T04:52:21.567Z,0
2018-03-29T04:53:23.032Z,0
2018-03-29T04:54:24.456Z,0
2018-03-29T04:55:25.888Z,0
2018-03-29T04:56:27.341Z,0
2018-03-29T04:57:28.838Z,0
2018-03-29T04:58:30.250Z,0
2018-03-29T04:59:31.704Z,0
2018-03-29T05:00:33.135Z,0
2018-03-29T05:01:34.537Z,0
2018-03-29T05:02:35.943Z,0
2018-03-29T05:03:37.368Z,0
2018-03-29T05:04:38.881Z,0
2018-03-29T05:05:40.349Z,0
2018-03-29T05:06:41.790Z,0
2018-03-29T05:07:43.272Z,0
2018-03-29T05:08:44.663Z,0
2018-03-29T05:09:46.194Z,5
2018-03-29T05:10:47.987Z,5
2018-03-29T05:11:49.671Z,5
2018-03-29T05:12:51.342Z,5
2018-03-29T05:13:53.018Z,5
2018-03-29T05:14:54.490Z,5
2018-03-29T05:15:55.921Z,10
2018-03-29T05:16:57.391Z,10
2018-03-29T05:17:58.881Z,10
2018-03-29T05:19:00.330Z,10
2018-03-29T05:20:01.781Z,10
2018-03-29T05:21:03.275Z,10
2018-03-29T05:22:04.653Z,10
2018-03-29T05:23:06.109Z,10
2018-03-29T05:24:07.580Z,15
2018-03-29T05:25:09.032Z,15
2018-03-29T05:26:10.459Z,15
2018-03-29T05:27:11.905Z,20
2018-03-29T05:28:13.336Z,20
2018-03-29T05:29:14.783Z,25
2018-03-29T05:30:16.237Z,25
2018-03-29T05:31:17.669Z,25
2018-03-29T05:32:19.153Z,25
2018-03-29T05:33:20.606Z,30
2018-03-29T05:34:22.039Z,25
2018-03-29T05:35:23.472Z,25
2018-03-29T05:36:24.884Z,25
2018-03-29T05:37:26.355Z,20
2018-03-29T05:38:27.754Z,20
2018-03-29T05:39:29.271Z,20
2018-03-29T05:40:30.663Z,20
2018-03-29T05:41:32.139Z,20
2018-03-29T05:42:33.586Z,15
2018-03-29T05:43:35.057Z,10
2018-03-29T05:44:36.537Z,10
2018-03-29T05:45:38.028Z,10
2018-03-29T05:46:39.457Z,10
2018-03-29T05:47:40.878Z,10
2018-03-29T05:48:42.304Z,10
2018-03-29T05:49:43.773Z,15
2018-03-29T05:50:45.173Z,15
2018-03-29T05:51:46.632Z,30
2018-03-29T05:52:48.104Z,50
2018-03-29T05:53:49.548Z,55
2018-03-29T05:54:50.982Z,60
2018-03-29T05:55:52.423Z,70
2018-03-29T05:56:53.991Z,75
2018-03-29T05:57:55.446Z,80
2018-03-29T05:58:56.884Z,75
2018-03-29T05:59:58.309Z,70
2018-03-29T06:00:59.761Z,75
2018-03-29T06:02:01.255Z,90
2018-03-29T06:03:02.778Z,110
2018-03-29T06:04:04.204Z,115
2018-03-29T06:05:05.628Z,120
2018-03-29T06:06:07.123Z,120
2018-03-29T06:07:08.603Z,120
2018-03-29T06:08:10.084Z,110
2018-03-29T06:09:11.508Z,95
2018-03-29T06:10:12.896Z,90
2018-03-29T06:11:14.344Z,105
2018-03-29T06:12:15.761Z,95
2018-03-29T06:13:17.215Z,110
2018-03-29T06:14:18.679Z,95
2018-03-29T06:15:20.123Z,85
2018-03-29T06:16:21.655Z,70
2018-03-29T06:17:23.058Z,70
2018-03-29T06:18:24.515Z,65
2018-03-29T06:19:25.961Z,75
2018-03-29T06:20:27.410Z,95
2018-03-29T06:21:28.909Z,90
2018-03-29T06:22:30.387Z,80
2018-03-29T06:23:31.767Z,75
2018-03-29T06:24:33.173Z,95
2018-03-29T06:25:34.570Z,100
2018-03-29T06:26:36.013Z,105
2018-03-29T06:27:37.479Z,120
2018-03-29T06:28:38.944Z,145
2018-03-29T06:29:40.361Z,130
2018-03-29T06:30:41.802Z,140
2018-03-29T06:31:43.273Z,145
2018-03-29T06:32:44.674Z,130
2018-03-29T06:33:46.120Z,110
2018-03-29T06:34:47.559Z,110
2018-03-29T06:35:48.975Z,140
2018-03-29T06:36:50.372Z,150
2018-03-29T06:37:51.803Z,145
2018-03-29T06:38:53.289Z,130
2018-03-29T06:39:54.683Z,150
2018-03-29T06:40:56.138Z,140
2018-03-29T06:41:57.601Z,165
2018-03-29T06:42:59.057Z,165
2018-03-29T06:44:00.488Z,185
2018-03-29T06:45:01.963Z,160
2018-03-29T06:46:03.380Z,180
2018-03-29T06:47:04.886Z,205
2018-03-29T06:48:06.239Z,195
2018-03-29T06:49:07.675Z,180
2018-03-29T06:50:09.092Z,175
2018-03-29T06:51:10.541Z,165
2018-03-29T06:52:12.014Z,180
2018-03-29T06:53:13.523Z,195
2018-03-29T06:54:14.955Z,220
2018-03-29T06:55:16.417Z,220
2018-03-29T06:56:17.882Z,195
2018-03-29T06:57:19.312Z,175
2018-03-29T06:58:20.763Z,165
2018-03-29T06:59:22.195Z,180
2018-03-29T07:00:23.620Z,185
2018-03-29T07:01:25.070Z,185
2018-03-29T07:02:26.521Z,235
2018-03-29T07:03:27.935Z,245
2018-03-29T07:04:29.371Z,255
2018-03-29T07:05:30.766Z,255
2018-03-29T07:06:32.198Z,260
2018-03-29T07:07:33.661Z,280
2018-03-29T07:08:35.096Z,290
2018-03-29T07:09:36.561Z,285
2018-03-29T07:10:37.988Z,295
2018-03-29T07:11:39.434Z,295
2018-03-29T07:12:40.877Z,250
2018-03-29T07:13:42.303Z,250
2018-03-29T07:14:43.849Z,265
2018-03-29T07:15:45.261Z,270
2018-03-29T07:16:46.680Z,250
2018-03-29T07:17:48.110Z,270
2018-03-29T07:18:49.551Z,310
2018-03-29T07:19:50.997Z,330
2018-03-29T07:20:52.374Z,335
2018-03-29T07:21:53.838Z,295
2018-03-29T07:22:55.266Z,305
2018-03-29T07:23:56.718Z,265
2018-03-29T07:24:58.156Z,250
2018-03-29T07:25:59.640Z,225
2018-03-29T07:27:01.128Z,225
2018-03-29T07:28:02.559Z,240
2018-03-29T07:29:04.005Z,255
2018-03-29T07:30:05.495Z,235
2018-03-29T07:31:06.929Z,220
2018-03-29T07:32:08.440Z,230
2018-03-29T07:33:09.886Z,180
2018-03-29T07:34:11.349Z,200
2018-03-29T07:35:12.773Z,185
2018-03-29T07:36:14.239Z,170
2018-03-29T07:37:15.685Z,190
2018-03-29T07:38:17.115Z,200
2018-03-29T07:39:18.552Z,200
2018-03-29T07:40:19.993Z,200
2018-03-29T07:41:21.458Z,225
2018-03-29T07:42:22.880Z,175
2018-03-29T07:43:24.351Z,145
2018-03-29T07:44:25.785Z,135
2018-03-29T07:45:27.208Z,120
2018-03-29T07:46:28.715Z,125
2018-03-29T07:47:30.157Z,150
2018-03-29T07:48:31.630Z,210
2018-03-29T07:49:33.095Z,190
2018-03-29T07:50:34.543Z,160
2018-03-29T07:51:35.964Z,215
2018-03-29T07:52:37.394Z,215
2018-03-29T07:53:38.873Z,205
2018-03-29T07:54:40.338Z,170
2018-03-29T07:55:41.789Z,185
2018-03-29T07:56:43.189Z,185
2018-03-29T07:57:44.635Z,185
2018-03-29T07:58:46.048Z,180
2018-03-29T07:59:47.677Z,190
2018-03-29T08:00:49.113Z,180
2018-03-29T08:01:50.543Z,155
2018-03-29T08:02:52.044Z,180
2018-03-29T08:03:53.540Z,185
2018-03-29T08:04:55.008Z,190
2018-03-29T08:05:56.463Z,160
2018-03-29T08:06:57.886Z,140
2018-03-29T08:07:59.532Z,140
2018-03-29T08:09:01.206Z,135
2018-03-29T08:10:02.695Z,125
2018-03-29T08:11:04.139Z,130
2018-03-29T08:12:05.592Z,130
2018-03-29T08:13:07.066Z,135
2018-03-29T08:14:08.601Z,115
2018-03-29T08:15:10.279Z,145
2018-03-29T08:16:12.100Z,140
2018-03-29T08:17:13.624Z,155
2018-03-29T08:18:15.147Z,175
2018-03-29T08:19:16.976Z,235
2018-03-29T08:20:18.755Z,180
2018-03-29T08:21:20.458Z,270
2018-03-29T08:22:22.196Z,295
2018-03-29T08:23:23.673Z,230
2018-03-29T08:24:25.100Z,270
2018-03-29T08:25:26.640Z,275
2018-03-29T08:26:28.113Z,240
2018-03-29T08:27:29.582Z,175
2018-03-29T08:28:31.061Z,175
2018-03-29T08:29:32.512Z,180
2018-03-29T08:30:34.017Z,210
2018-03-29T08:31:36.195Z,215
2018-03-29T08:32:37.715Z,150
2018-03-29T08:33:39.306Z,120
2018-03-29T08:34:41.111Z,105
2018-03-29T08:35:42.858Z,105
2018-03-29T08:36:44.644Z,85
2018-03-29T08:37:46.468Z,80
2018-03-29T08:38:48.008Z,80
2018-03-29T08:39:49.564Z,100
2018-03-29T08:40:51.179Z,110
2018-03-29T08:41:52.952Z,145
2018-03-29T08:42:54.645Z,165
2018-03-29T08:43:56.432Z,180
2018-03-29T08:44:58.269Z,210
2018-03-29T08:45:59.747Z,265
2018-03-29T08:47:01.304Z,235
2018-03-29T08:48:02.768Z,220
2018-03-29T08:49:04.306Z,235
2018-03-29T08:50:06.361Z,245
2018-03-29T08:51:07.990Z,245
2018-03-29T08:52:09.793Z,230
2018-03-29T08:53:11.524Z,305
2018-03-29T08:54:13.294Z,440
2018-03-29T08:55:15.108Z,470
2018-03-29T08:56:16.605Z,390
2018-03-29T08:57:18.030Z,370
2018-03-29T08:58:19.557Z,370
2018-03-29T08:59:21.078Z,390
2018-03-29T09:00:22.783Z,430
2018-03-29T09:01:24.293Z,460
2018-03-29T09:02:25.754Z,480
2018-03-29T09:03:27.261Z,535
2018-03-29T09:04:29.049Z,515
2018-03-29T09:05:30.542Z,500
2018-03-29T09:06:32.391Z,500
2018-03-29T09:07:34.281Z,545
2018-03-29T09:08:36.966Z,610
2018-03-29T09:09:38.793Z,695
2018-03-29T09:10:40.551Z,860
2018-03-29T09:11:42.401Z,825
2018-03-29T09:12:44.065Z,755
2018-03-29T09:13:45.782Z,625
2018-03-29T09:14:47.442Z,515
2018-03-29T09:15:49.254Z,480
2018-03-29T09:16:51.123Z,415
2018-03-29T09:17:52.987Z,345
2018-03-29T09:18:54.844Z,360
2018-03-29T09:19:56.342Z,295
2018-03-29T09:20:57.883Z,240
2018-03-29T09:21:59.445Z,265
2018-03-29T09:23:00.942Z,335
2018-03-29T09:24:02.453Z,430
2018-03-29T09:25:04.326Z,485
2018-03-29T09:26:05.877Z,555
2018-03-29T09:27:07.422Z,775
2018-03-29T09:28:09.055Z,610
2018-03-29T09:29:10.957Z,595
2018-03-29T09:30:12.724Z,445
2018-03-29T09:31:14.273Z,470
2018-03-29T09:32:15.869Z,435
2018-03-29T09:33:17.554Z,370
2018-03-29T09:34:19.417Z,360
2018-03-29T09:35:21.153Z,345
2018-03-29T09:36:22.671Z,280
2018-03-29T09:37:24.181Z,250
2018-03-29T09:38:25.774Z,225
2018-03-29T09:39:27.627Z,205
2018-03-29T09:40:29.377Z,185
2018-03-29T09:41:31.148Z,185
2018-03-29T09:42:32.588Z,200
2018-03-29T09:43:34.062Z,235
2018-03-29T09:44:35.809Z,250
2018-03-29T09:45:37.518Z,280
2018-03-29T09:46:39.217Z,335
2018-03-29T09:47:40.737Z,325
2018-03-29T09:48:42.123Z,285
2018-03-29T09:49:43.530Z,255
2018-03-29T09:50:44.940Z,240
2018-03-29T09:51:46.371Z,230
2018-03-29T09:52:47.918Z,200
2018-03-29T09:53:49.485Z,215
2018-03-29T09:54:50.977Z,250
2018-03-29T09:55:52.503Z,285
2018-03-29T09:56:54.046Z,320
2018-03-29T09:57:55.559Z,285
2018-03-29T09:58:57.169Z,310
2018-03-29T09:59:58.660Z,320
2018-03-29T10:01:00.167Z,345
2018-03-29T10:02:01.623Z,340
2018-03-29T10:03:03.092Z,365
2018-03-29T10:04:04.599Z,365
2018-03-29T10:05:06.061Z,360
2018-03-29T10:06:07.747Z,320
2018-03-29T10:07:09.410Z,300
2018-03-29T10:08:10.891Z,320
2018-03-29T10:09:12.452Z,415
2018-03-29T10:10:14.000Z,535
2018-03-29T10:11:15.611Z,560
2018-03-29T10:12:17.035Z,470
2018-03-29T10:13:18.578Z,525
2018-03-29T10:14:20.084Z,560
2018-03-29T10:15:21.591Z,495
2018-03-29T10:16:23.063Z,535
2018-03-29T10:17:24.571Z,480
2018-03-29T10:18:26.001Z,435
2018-03-29T10:19:27.549Z,385
2018-03-29T10:20:29.067Z,335
2018-03-29T10:21:30.601Z,290
2018-03-29T10:22:32.176Z,290
2018-03-29T10:23:34.039Z,260
2018-03-29T10:24:35.552Z,225
2018-03-29T10:25:37.093Z,235
2018-03-29T10:26:38.671Z,210
2018-03-29T10:27:40.162Z,260
2018-03-29T10:28:41.782Z,290
2018-03-29T10:29:43.309Z,355
2018-03-29T10:30:44.911Z,355
2018-03-29T10:31:46.551Z,405
2018-03-29T10:32:48.406Z,470
2018-03-29T10:33:50.280Z,480
2018-03-29T10:34:51.832Z,640
2018-03-29T10:35:53.335Z,800
2018-03-29T10:36:54.868Z,960
2018-03-29T10:37:56.407Z,1060
2018-03-29T10:38:57.822Z,875
2018-03-29T10:39:59.318Z,820
2018-03-29T10:41:00.853Z,1230
2018-03-29T10:42:02.302Z,1520
2018-03-29T10:43:03.797Z,1440
2018-03-29T10:44:05.474Z,1220
2018-03-29T10:45:07.421Z,1280
2018-03-29T10:46:09.299Z,1185
2018-03-29T10:47:11.106Z,1430
2018-03-29T10:48:12.972Z,1195
2018-03-29T10:49:14.771Z,1095
2018-03-29T10:50:16.307Z,1320
2018-03-29T10:51:17.813Z,1085
2018-03-29T10:52:19.315Z,1115
2018-03-29T10:53:20.815Z,880
2018-03-29T10:54:22.247Z,840
2018-03-29T10:55:23.759Z,655
2018-03-29T10:56:25.272Z,640
2018-03-29T10:57:26.720Z,590
2018-03-29T10:58:28.221Z,575
2018-03-29T10:59:29.731Z,545
2018-03-29T11:00:31.158Z,595
2018-03-29T11:01:32.681Z,585
2018-03-29T11:02:34.231Z,390
2018-03-29T11:03:35.794Z,350
2018-03-29T11:04:37.266Z,345
2018-03-29T11:05:38.711Z,465
2018-03-29T11:06:40.186Z,975
2018-03-29T11:07:41.683Z,1140
2018-03-29T11:08:43.193Z,1160
2018-03-29T11:09:44.712Z,2385
2018-03-29T11:10:46.259Z,1780
2018-03-29T11:11:47.703Z,1740
2018-03-29T11:12:49.141Z,820
2018-03-29T11:13:50.564Z,1215
2018-03-29T11:14:52.111Z,1030
2018-03-29T11:15:53.563Z,1155
2018-03-29T11:16:55.055Z,875
2018-03-29T11:17:56.607Z,990
2018-03-29T11:18:58.118Z,690
2018-03-29T11:19:59.723Z,770
2018-03-29T11:21:01.203Z,745
2018-03-29T11:22:02.694Z,670
2018-03-29T11:23:04.351Z,555
2018-03-29T11:24:05.770Z,405
2018-03-29T11:25:07.238Z,375
2018-03-29T11:26:08.744Z,390
2018-03-29T11:27:10.175Z,540
2018-03-29T11:28:11.616Z,615
2018-03-29T11:29:13.182Z,865
2018-03-29T11:30:14.640Z,980
2018-03-29T11:31:16.128Z,1240
2018-03-29T11:32:17.594Z,1365
2018-03-29T11:33:19.186Z,1175
2018-03-29T11:34:20.628Z,1920
2018-03-29T11:35:22.098Z,2325
2018-03-29T11:36:23.573Z,4975
2018-03-29T11:37:25.053Z,710
2018-03-29T11:38:26.649Z,425
2018-03-29T11:39:28.061Z,350
2018-03-29T11:40:29.629Z,345
2018-03-29T11:41:31.163Z,380
2018-03-29T11:42:32.769Z,475
2018-03-29T11:43:34.342Z,665
2018-03-29T11:44:35.768Z,680
2018-03-29T11:45:37.265Z,2990
2018-03-29T11:46:38.864Z,3020
2018-03-29T11:47:40.333Z,2860
2018-03-29T11:48:41.809Z,1390
2018-03-29T11:49:43.239Z,915
2018-03-29T11:50:44.796Z,2260
2018-03-29T11:51:46.273Z,680
2018-03-29T11:52:47.725Z,785
2018-03-29T11:53:49.182Z,1155
2018-03-29T11:54:50.665Z,1380
2018-03-29T11:55:52.116Z,800
2018-03-29T11:56:53.554Z,760
2018-03-29T11:57:55.041Z,620
2018-03-29T11:58:56.469Z,565
2018-03-29T11:59:57.894Z,520
2018-03-29T12:00:59.417Z,490
2018-03-29T12:02:00.901Z,465
2018-03-29T12:03:02.322Z,440
2018-03-29T12:04:03.793Z,395
2018-03-29T12:05:05.312Z,360
2018-03-29T12:06:06.801Z,330
2018-03-29T12:07:08.291Z,315
2018-03-29T12:08:09.803Z,345
2018-03-29T12:09:11.327Z,395
2018-03-29T12:10:12.771Z,440
2018-03-29T12:11:14.274Z,480
2018-03-29T12:12:15.893Z,480
2018-03-29T12:13:17.407Z,505
2018-03-29T12:14:18.917Z,580
2018-03-29T12:15:20.448Z,845
2018-03-29T12:16:21.958Z,905
2018-03-29T12:17:23.479Z,925
2018-03-29T12:18:24.970Z,2060
2018-03-29T12:19:26.446Z,2255
2018-03-29T12:20:27.971Z,2925
2018-03-29T12:21:29.489Z,2580
2018-03-29T12:22:30.952Z,2535
2018-03-29T12:23:32.558Z,1845
2018-03-29T12:24:34.020Z,1765
2018-03-29T12:25:35.525Z,2510
2018-03-29T12:26:36.969Z,2025
2018-03-29T12:27:38.480Z,2100
2018-03-29T12:28:39.959Z,1975
2018-03-29T12:29:41.437Z,2295
2018-03-29T12:30:42.982Z,2135
2018-03-29T12:31:44.566Z,1625
2018-03-29T12:32:46.094Z,1435
2018-03-29T12:33:47.502Z,1565
2018-03-29T12:34:48.982Z,1550
2018-03-29T12:35:50.418Z,1345
2018-03-29T12:36:51.901Z,1305
2018-03-29T12:37:53.322Z,1060
2018-03-29T12:38:54.836Z,940
2018-03-29T12:39:56.344Z,860
2018-03-29T12:40:57.826Z,635
2018-03-29T12:41:59.475Z,650
2018-03-29T12:43:00.776Z,570
2018-03-29T12:44:02.232Z,540
2018-03-29T12:45:03.665Z,375
2018-03-29T12:46:05.167Z,295
2018-03-29T12:47:06.658Z,260
2018-03-29T12:48:08.148Z,225
2018-03-29T12:49:09.621Z,205
2018-03-29T12:50:11.483Z,185
2018-03-29T12:51:12.960Z,175
2018-03-29T12:52:14.429Z,180
2018-03-29T12:53:15.924Z,200
2018-03-29T12:54:17.954Z,240
2018-03-29T12:55:19.378Z,285
2018-03-29T12:56:20.820Z,425
2018-03-29T12:57:22.221Z,325
2018-03-29T12:58:23.726Z,305
2018-03-29T12:59:25.242Z,300
2018-03-29T13:00:26.646Z,330
2018-03-29T13:01:28.125Z,345
2018-03-29T13:02:29.630Z,330
2018-03-29T13:03:31.130Z,325
2018-03-29T13:04:32.592Z,300
2018-03-29T13:05:34.016Z,280
2018-03-29T13:06:35.573Z,285
2018-03-29T13:07:37.571Z,290
2018-03-29T13:08:39.034Z,330
2018-03-29T13:09:41.391Z,430
2018-03-29T13:10:42.892Z,780
2018-03-29T13:11:44.345Z,580
2018-03-29T13:12:45.968Z,535
2018-03-29T13:13:47.414Z,530
2018-03-29T13:14:48.824Z,595
2018-03-29T13:15:50.294Z,710
2018-03-29T13:16:51.976Z,780
2018-03-29T13:17:53.626Z,775
2018-03-29T13:18:55.099Z,880
2018-03-29T13:19:57.028Z,2055
2018-03-29T13:20:58.479Z,1495
2018-03-29T13:22:00.013Z,1530
2018-03-29T13:23:01.920Z,2250
2018-03-29T13:24:03.356Z,2065
2018-03-29T13:25:04.814Z,2665
2018-03-29T13:26:06.620Z,2665
2018-03-29T13:27:08.057Z,2915
2018-03-29T13:28:09.558Z,3045
2018-03-29T13:29:11.044Z,1845
2018-03-29T13:30:13.002Z,2695
2018-03-29T13:31:14.480Z,3035
2018-03-29T13:32:15.944Z,2975
2018-03-29T13:33:17.811Z,2580
2018-03-29T13:34:19.297Z,1195
2018-03-29T13:35:20.803Z,1030
2018-03-29T13:36:22.420Z,965
2018-03-29T13:37:23.862Z,1190
2018-03-29T13:38:25.344Z,2125
2018-03-29T13:39:26.803Z,2125
2018-03-29T13:40:28.690Z,1945
2018-03-29T13:41:30.135Z,1075
2018-03-29T13:42:31.542Z,610
2018-03-29T13:43:33.667Z,430
2018-03-29T13:44:35.131Z,370
2018-03-29T13:45:36.580Z,305
2018-03-29T13:46:38.301Z,225
2018-03-29T13:47:39.800Z,190
2018-03-29T13:48:41.237Z,170
2018-03-29T13:49:43.266Z,110
2018-03-29T13:50:45.338Z,90
2018-03-29T13:51:46.805Z,95
2018-03-29T13:52:48.305Z,100
2018-03-29T13:53:50.074Z,100
2018-03-29T13:54:51.543Z,115
2018-03-29T13:55:52.927Z,135
2018-03-29T13:56:54.429Z,155
2018-03-29T13:57:55.826Z,155
2018-03-29T13:58:57.238Z,175
2018-03-29T13:59:58.873Z,215
2018-03-29T14:01:00.284Z,280
2018-03-29T14:02:01.996Z,330
2018-03-29T14:03:03.409Z,320
2018-03-29T14:04:05.126Z,310
2018-03-29T14:05:06.574Z,280
2018-03-29T14:06:07.998Z,225
2018-03-29T14:07:09.901Z,200
2018-03-29T14:08:11.334Z,170
2018-03-29T14:09:12.768Z,155
2018-03-29T14:10:14.507Z,135
2018-03-29T14:11:15.888Z,120
2018-03-29T14:12:17.336Z,125
2018-03-29T14:13:19.005Z,145
2018-03-29T14:14:20.431Z,165
2018-03-29T14:15:21.832Z,160
2018-03-29T14:16:23.249Z,175
2018-03-29T14:17:24.625Z,295
2018-03-29T14:18:26.031Z,805
2018-03-29T14:19:27.436Z,1455
2018-03-29T14:20:28.866Z,2270
2018-03-29T14:21:30.277Z,2365
2018-03-29T14:22:31.675Z,920
2018-03-29T14:23:33.109Z,855
2018-03-29T14:24:34.450Z,990
2018-03-29T14:25:35.898Z,1485
2018-03-29T14:26:37.387Z,2195
2018-03-29T14:27:38.783Z,1970